Saint Petersburg Beach, Florida
Current Conditions -  °F | °C
As of 8:53 PM on Monday 20 Oct 2014 (Local Time) from KSPG Reporting Station
Clear Clear  
Wind Chill: 78°   Ceiling: Unl
Heat Index: 80°   Visibility: 10mi
Dew Point: 65°   Wind: 6mph
Humidity: 64%   Direction: 360°N
Pressure: 29.95"   Gusts: NA
Location:  27.7254°N, 82.7422°W
Report Text: KSPG 210053Z AUTO 36005KT 10SM CLR 26/18 A2995 RMK AO2 SLP142 T02560183
Loading
Personal Weather Stations






























Interactive Weather Map New forecast layout! Learn more

10-Day Weather Forecast

Advertisements
Track Severe Weather on mobile